Thomas G. Thompson — KTDQ — position and weather

sailwx.info

Track history (hours):
 
Tides and Currents Weather Stations Pressure Air Temp Water Temp Dewpoint Dewpoint Depression Visibility Wind Speed Wind Dir Waves Ship Positions

Oceanographic research ship Thomas G. Thompson (USA)

Ship's website: http://www.ocean.washington.edu/vessels/TGT/tgt.html

Detailed information on ship capabilities available from University of Delaware's Ocean Information Center.

Owner: UNIVERSITY OF WASHINGTON, SEATTLE, WA. More information available from US FCC via Universal Licensing System and Coast Guard Vessel Documentation Center.

Last reported at 2018-Jan-12 11:05 UTC. Time now 2018-Jan-19 23:36 UTC.
Position N 48°15' W 123°54'.

Type: Other ship. MMSI: 366345000.

Date/timePositionNaut miles runAvg speedWind from/ knotsBaromVisibWave heightAir tempDewpointWater temp
2018-Jan-12 11:05N 48°15' W 123°54'0 0.3
2018-Jan-12 10:46N 48°15' W 123°54'1 0.5
2018-Jan-12 07:43N 48°17' W 123°53'2 6.8
2018-Jan-12 07:27N 48°15' W 123°55'4 9.4
2018-Jan-12 07:00N 48°15' W 124°01'613.2
2018-Jan-12 06:31N 48°18' W 124°10'4 8.4
2018-Jan-12 06:00N 48°20' W 124°15'3 6.9
2018-Jan-12 05:31N 48°21' W 124°20'612.0
2018-Jan-12 05:00N 48°24' W 124°28'611.5
2018-Jan-12 04:31N 48°26' W 124°36'611.3
2018-Jan-12 04:00N 48°29' W 124°44'510.6
2018-Jan-12 03:31N 48°29' W 124°52'510.1
2018-Jan-12 03:01N 48°28' W 124°59'6 0.1
2018-Jan-10 09:08N 48°25' W 125°07'1 9.6
2018-Jan-10 08:59N 48°27' W 125°05'611.8
2018-Jan-10 08:29N 48°31' W 124°59'511.5
2018-Jan-10 08:01N 48°31' W 124°51'611.1
2018-Jan-10 07:31N 48°31' W 124°43'611.1
2018-Jan-10 07:00N 48°28' W 124°35'510.6
2018-Jan-10 06:30N 48°26' W 124°27'510.8
2018-Jan-10 06:01N 48°24' W 124°20'611.3
2018-Jan-10 05:30N 48°22' W 124°12'610.7
2018-Jan-10 04:59N 48°20' W 124°05'42 1.6
2018-Jan-09 02:17N 48°15' W 123°02'0 0.8
2018-Jan-09 01:44N 48°15' W 123°03'0 0.3
2018-Jan-09 01:28N 48°15' W 123°03'6 8.2
2018-Jan-09 00:43N 48°13' W 122°54'314.2
2018-Jan-09 00:31N 48°12' W 122°49'1014.1
2018-Jan-08 23:49N 48°06' W 122°39'513.9
2018-Jan-08 23:25N 48°00' W 122°36'512.6
2018-Jan-08 23:00N 47°57' W 122°31'713.3
2018-Jan-08 22:30N 47°50' W 122°27'713.2
2018-Jan-08 22:00N 47°44' W 122°26'612.7
2018-Jan-08 21:31N 47°37' W 122°26'3 6.0
2018-Jan-08 20:55N 47°37' W 122°21'0 0.0
2018-Jan-08 20:22N 47°37' W 122°21'0 0.0
2018-Jan-08 19:58N 47°37' W 122°21'0 0.0
2018-Jan-08 19:16N 47°37' W 122°21'0 0.0
2018-Jan-08 18:58N 47°37' W 122°21'0 0.0
2018-Jan-08 18:28N 47°37' W 122°21'0 0.0
2018-Jan-08 17:58N 47°37' W 122°21'0 0.0
2018-Jan-08 17:28N 47°37' W 122°21'0 0.0
2018-Jan-08 16:58N 47°37' W 122°21'0 0.0
2018-Jan-08 16:28N 47°37' W 122°21'0 0.0
2018-Jan-08 15:22N 47°37' W 122°21'0 0.0
2018-Jan-08 14:58N 47°37' W 122°21'0 0.0
2018-Jan-08 14:28N 47°37' W 122°21'0 0.0
2018-Jan-08 13:58N 47°37' W 122°21'0 0.0
2018-Jan-08 13:04N 47°37' W 122°21'0 0.0
2018-Jan-08 11:46N 47°37' W 122°21'0 0.0
2018-Jan-08 10:28N 47°37' W 122°21'0 0.0
2018-Jan-08 09:52N 47°37' W 122°21'0 0.0
2018-Jan-08 09:28N 47°37' W 122°21'0 0.0
2018-Jan-08 08:46N 47°37' W 122°21'0 0.0
2018-Jan-08 08:22N 47°37' W 122°21'0 0.0
2018-Jan-08 07:58N 47°37' W 122°21'0 0.0
2018-Jan-08 07:28N 47°37' W 122°21'0 0.0
2018-Jan-08 06:58N 47°37' W 122°21'0 0.0
2018-Jan-08 06:28N 47°37' W 122°21'0 0.0
2018-Jan-08 05:58N 47°37' W 122°21'0 0.0
2018-Jan-08 05:28N 47°37' W 122°21'0 0.0
2018-Jan-08 04:58N 47°37' W 122°21'0 0.0
2018-Jan-08 04:28N 47°37' W 122°21'0 0.0
2018-Jan-08 03:52N 47°37' W 122°21'0 0.0
2018-Jan-08 03:10N 47°37' W 122°21'0 0.0
2018-Jan-08 02:52N 47°37' W 122°21'0 0.0
2018-Jan-08 02:28N 47°37' W 122°21'0 0.0
2018-Jan-08 01:58N 47°37' W 122°21'0 0.0
2018-Jan-08 01:28N 47°37' W 122°21'0 0.0
2018-Jan-08 00:46N 47°37' W 122°21'0 0.0
2018-Jan-08 00:28N 47°37' W 122°21'0 0.0
2018-Jan-08 00:00N 47°37' W 122°21'1 2.1
2018-Jan-07 23:30N 47°37' W 122°22'4 7.6
2018-Jan-07 23:00N 47°39' W 122°27'4 7.8
2018-Jan-07 22:30N 47°43' W 122°25'0 0.0
2018-Jan-07 22:01N 47°43' W 122°25'0 0.0
2018-Jan-07 21:30N 47°43' W 122°25'1 1.8
2018-Jan-07 21:00N 47°44' W 122°25'4 8.4
2018-Jan-07 20:30N 47°48' W 122°25'4 7.6
2018-Jan-07 20:00N 47°52' W 122°24'1 1.6
2018-Jan-07 19:31N 47°53' W 122°24'2 4.1
2018-Jan-07 19:00N 47°51' W 122°25'0 0.4
2018-Jan-07 18:28N 47°51' W 122°25'4 9.5
2018-Jan-07 18:00N 47°46' W 122°25'2 3.8
2018-Jan-07 17:31N 47°44' W 122°24'1 1.7
2018-Jan-07 17:00N 47°44' W 122°25'2 3.5
2018-Jan-07 16:30N 47°42' W 122°25'0 0.9
2018-Jan-07 16:00N 47°42' W 122°25'0 0.0
2018-Jan-07 15:30N 47°42' W 122°25'2 3.2
2018-Jan-07 15:00N 47°43' W 122°25'2 3.4
2018-Jan-07 14:31N 47°41' W 122°25'2 3.9
2018-Jan-07 14:00N 47°43' W 122°25'1 1.3
2018-Jan-07 13:30N 47°43' W 122°25'1 2.7
2018-Jan-07 13:00N 47°41' W 122°25'2 4.5
2018-Jan-07 12:30N 47°44' W 122°25'1 1.3
2018-Jan-07 12:01N 47°44' W 122°25'4 8.5
2018-Jan-07 11:30N 47°48' W 122°25'2 3.0
2018-Jan-07 11:01N 47°50' W 122°25'1 2.5
2018-Jan-07 10:31N 47°51' W 122°25'1 1.7
2018-Jan-07 10:00N 47°52' W 122°24'1 1.6
2018-Jan-07 09:31N 47°51' W 122°24'1 2.5
2018-Jan-07 09:01N 47°52' W 122°26'1 3.0
2018-Jan-07 08:31N 47°53' W 122°27'4 7.4
2018-Jan-07 07:59N 47°56' W 122°31'26 7.3
2018-Jan-07 04:28N 48°16' W 122°55'5 9.8
2018-Jan-07 04:00N 48°20' W 122°59'5 9.6
2018-Jan-07 03:30N 48°24' W 123°03'5 9.7
2018-Jan-07 03:00N 48°27' W 123°08'510.0
2018-Jan-07 02:31N 48°31' W 123°12'5 9.9
2018-Jan-07 02:00N 48°36' W 123°14'5 9.3
2018-Jan-07 01:29N 48°41' W 123°16'9 9.5
2018-Jan-07 00:29N 48°46' W 123°04'5 9.2
2018-Jan-06 23:55N 48°49' W 122°58'611.0
2018-Jan-06 23:22N 48°47' W 122°50'511.6
2018-Jan-06 22:55N 48°43' W 122°44'410.1
2018-Jan-06 22:31N 48°39' W 122°43'5 9.6
2018-Jan-06 22:00N 48°34' W 122°45'5 9.6
2018-Jan-06 21:30N 48°29' W 122°44'510.6
2018-Jan-06 21:01N 48°24' W 122°44'611.7
2018-Jan-06 20:30N 48°18' W 122°46'2213.0
2018-Jan-06 18:50N 47°58' W 122°34'514.0
2018-Jan-06 18:31N 47°55' W 122°29'713.6
2018-Jan-06 18:00N 47°49' W 122°26'613.0
2018-Jan-06 17:30N 47°42' W 122°25'1 1.8
2018-Jan-06 17:00N 47°41' W 122°25'0 0.0
2018-Jan-06 16:30N 47°41' W 122°25'0 0.1
2018-Jan-06 16:00N 47°41' W 122°25'0 0.7
2018-Jan-06 15:30N 47°42' W 122°25'4 8.0
2018-Jan-06 15:00N 47°46' W 122°25'5 9.1
2018-Jan-06 14:30N 47°50' W 122°25'2 3.4
2018-Jan-06 14:00N 47°52' W 122°25'1 2.1
2018-Jan-06 13:30N 47°51' W 122°25'1 2.9
2018-Jan-06 13:00N 47°52' W 122°24'1 1.2
2018-Jan-06 12:30N 47°52' W 122°24'1 1.6
2018-Jan-06 12:00N 47°51' W 122°25'2 3.6
2018-Jan-06 11:30N 47°53' W 122°24'1 1.6
2018-Jan-06 11:00N 47°52' W 122°24'0 1.0
2018-Jan-06 10:30N 47°51' W 122°24'2 4.0
2018-Jan-06 10:00N 47°53' W 122°26'4 7.7
2018-Jan-06 09:30N 47°55' W 122°31'5 8.8
2018-Jan-06 08:59N 47°58' W 122°36'15 8.3
2018-Jan-06 07:08N 48°11' W 122°49'1 9.3
2018-Jan-06 06:59N 48°12' W 122°50'510.5
2018-Jan-06 06:30N 48°16' W 122°55'612.3
2018-Jan-06 05:59N 48°21' W 123°00'612.7
2018-Jan-06 05:30N 48°26' W 123°06'713.6
2018-Jan-06 05:00N 48°31' W 123°12'714.3
2018-Jan-06 04:30N 48°38' W 123°15'511.0
2018-Jan-06 04:00N 48°43' W 123°11'1012.6
2018-Jan-06 03:14N 48°49' W 122°59'210.2
2018-Jan-06 02:59N 48°50' W 122°55'711.8
2018-Jan-06 02:25N 48°46' W 122°47'512.5
2018-Jan-06 02:00N 48°42' W 122°43'611.9
2018-Jan-06 01:31N 48°36' W 122°45'612.7
2018-Jan-06 01:00N 48°30' W 122°44'612.2
2018-Jan-06 00:30N 48°24' W 122°44'612.3
2018-Jan-06 00:00N 48°17' W 122°47'2011.4
2018-Jan-05 22:14N 47°59' W 122°35'312.6
2018-Jan-05 22:00N 47°57' W 122°32'612.3
2018-Jan-05 21:30N 47°52' W 122°28'713.2
2018-Jan-05 21:00N 47°45' W 122°26'713.1
2018-Jan-05 20:30N 47°39' W 122°27'4 8.1
2018-Jan-05 20:00N 47°36' W 122°21'4 8.0
2018-Jan-05 19:30N 47°34' W 122°26'510.3
2018-Jan-05 19:00N 47°29' W 122°25'5 9.9
2018-Jan-05 18:30N 47°25' W 122°22'4 8.4
2018-Jan-05 18:00N 47°21' W 122°24'5 9.3
2018-Jan-05 17:30N 47°19' W 122°31'3 6.8
2018-Jan-05 17:00N 47°16' W 122°33'5 9.1
2018-Jan-05 16:27N 47°12' W 122°36'3 0.5
2018-Jan-05 10:14N 47°10' W 122°40'0 0.0
2018-Jan-05 10:00N 47°10' W 122°40'0 0.0
2018-Jan-05 09:30N 47°10' W 122°40'0 0.0
2018-Jan-05 09:00N 47°10' W 122°40'0 0.0
2018-Jan-05 08:30N 47°10' W 122°40'0 0.1
2018-Jan-05 05:44N 47°10' W 122°40'0 0.0
2018-Jan-05 05:30N 47°10' W 122°40'0 0.0
2018-Jan-05 04:34N 47°10' W 122°40'0 0.0
2018-Jan-05 04:11N 47°10' W 122°40'0 0.3
2018-Jan-05 02:41N 47°10' W 122°39'1 5.7
2018-Jan-05 02:30N 47°11' W 122°38'5 9.7
2018-Jan-05 01:57N 47°15' W 122°34'4 9.6
2018-Jan-05 01:30N 47°20' W 122°33'5 9.5
2018-Jan-05 01:00N 47°21' W 122°26'4 8.3
2018-Jan-05 00:30N 47°24' W 122°23'5 9.8
2018-Jan-05 00:00N 47°29' W 122°26'510.7
2018-Jan-04 23:30N 47°34' W 122°28'611.1
2018-Jan-04 23:00N 47°39' W 122°28'5 9.9
2018-Jan-04 22:31N 47°44' W 122°26'1 2.4
2018-Jan-04 22:00N 47°45' W 122°25'0 0.0
2018-Jan-04 21:30N 47°45' W 122°25'0 0.0
2018-Jan-04 21:00N 47°45' W 122°25'2 3.7
2018-Jan-04 20:30N 47°43' W 122°25'2 3.2
2018-Jan-04 20:00N 47°41' W 122°25'0 0.0
2018-Jan-04 19:30N 47°41' W 122°25'0 0.0
2018-Jan-04 19:00N 47°41' W 122°25'0 0.0
2018-Jan-04 18:30N 47°41' W 122°25'0 0.0
2018-Jan-04 18:00N 47°41' W 122°25'0 0.0
2018-Jan-04 17:30N 47°41' W 122°25'0 0.0
2018-Jan-04 17:00N 47°41' W 122°25'0 0.0
2018-Jan-04 16:30N 47°41' W 122°25'0 0.0
2018-Jan-04 16:00N 47°41' W 122°25'0 0.0
2018-Jan-04 15:30N 47°41' W 122°25'0 0.0
2018-Jan-04 15:00N 47°41' W 122°25'0 0.0
2018-Jan-04 14:30N 47°41' W 122°25'3 5.4
2018-Jan-04 14:00N 47°44' W 122°25'4 8.3
2018-Jan-04 13:30N 47°48' W 122°25'3 6.8
2018-Jan-04 13:01N 47°51' W 122°23'0 0.2
2018-Jan-04 12:30N 47°51' W 122°23'0 0.2
2018-Jan-04 12:00N 47°51' W 122°23'0 0.0
2018-Jan-04 11:30N 47°51' W 122°23'1 2.0
2018-Jan-04 11:00N 47°51' W 122°24'0 0.0
2018-Jan-04 10:30N 47°51' W 122°24'0 0.0
2018-Jan-04 10:00N 47°51' W 122°24'0 0.0
2018-Jan-04 09:30N 47°51' W 122°24'0 0.0
2018-Jan-04 09:00N 47°51' W 122°24'0 0.3
2018-Jan-04 08:30N 47°51' W 122°24'0 1.0
2018-Jan-04 08:00N 47°51' W 122°25'0 0.0
2018-Jan-04 07:30N 47°51' W 122°25'0 0.5
2018-Jan-04 07:00N 47°51' W 122°25'1 2.3
2018-Jan-04 06:30N 47°52' W 122°24'1 1.2
2018-Jan-04 06:00N 47°52' W 122°25'5 9.3
2018-Jan-04 05:30N 47°47' W 122°25'3 6.3
2018-Jan-04 05:00N 47°44' W 122°25'0 0.0
2018-Jan-04 04:30N 47°44' W 122°25'0 0.0
2018-Jan-04 04:00N 47°44' W 122°25'0 0.0
2018-Jan-04 03:30N 47°44' W 122°25'0 0.0
2018-Jan-04 03:00N 47°44' W 122°25'0 0.0
2018-Jan-04 02:30N 47°44' W 122°25'0 0.0
2018-Jan-04 02:00N 47°44' W 122°25'0 0.0
2018-Jan-04 01:30N 47°44' W 122°25'0 0.0
2018-Jan-04 01:00N 47°44' W 122°25'0 0.0
2018-Jan-04 00:30N 47°44' W 122°25'2 4.8
2018-Jan-04 00:00N 47°46' W 122°27'612.6
2018-Jan-03 23:30N 47°53' W 122°29'612.5
2018-Jan-03 23:00N 47°57' W 122°35'2611.9
2018-Jan-03 20:48N 48°12' W 123°07'412.8
2018-Jan-03 20:28N 48°12' W 123°14'611.8
2018-Jan-03 19:59N 48°13' W 123°22'611.7
2018-Jan-03 19:30N 48°13' W 123°31'510.7
2018-Jan-03 19:00N 48°13' W 123°39'810.9
2018-Jan-03 18:14N 48°14' W 123°51'410.3
2018-Jan-03 17:48N 48°14' W 123°58'310.7
2018-Jan-03 17:30N 48°16' W 124°02'510.6
2018-Jan-03 17:00N 48°18' W 124°09'510.5
2018-Jan-03 16:30N 48°20' W 124°17'510.7
2018-Jan-03 16:00N 48°23' W 124°24'511.0
2018-Jan-03 15:30N 48°25' W 124°31'612.3
2018-Jan-03 15:00N 48°28' W 124°39'510.2
2018-Jan-03 14:30N 48°30' W 124°46'611.5
2018-Jan-03 14:00N 48°29' W 124°38'611.5
2018-Jan-03 13:30N 48°27' W 124°30'611.8
2018-Jan-03 13:00N 48°25' W 124°22'611.3
2018-Jan-03 12:30N 48°22' W 124°14'510.9
2018-Jan-03 12:00N 48°20' W 124°06'610.9
2018-Jan-03 11:28N 48°18' W 123°58'510.4
2018-Jan-03 11:00N 48°17' W 123°51'510.2
2018-Jan-03 10:30N 48°16' W 123°43'510.6
2018-Jan-03 10:00N 48°16' W 123°35'711.3
2018-Jan-03 09:24N 48°15' W 123°25'511.9
2018-Jan-03 09:00N 48°14' W 123°18'612.1
2018-Jan-03 08:30N 48°13' W 123°09'612.1
2018-Jan-03 08:00N 48°12' W 123°00'713.6
2018-Jan-03 07:29N 48°12' W 122°50'1012.9
2018-Jan-03 06:42N 48°05' W 122°39'714.4
2018-Jan-03 06:12N 47°58' W 122°35'313.9
2018-Jan-03 06:00N 47°57' W 122°31'612.7
2018-Jan-03 05:31N 47°51' W 122°28'611.1
2018-Jan-03 05:01N 47°46' W 122°26'1 1.8
2018-Jan-03 04:31N 47°45' W 122°25'0 0.0
2018-Jan-03 04:01N 47°45' W 122°25'0 0.0
2018-Jan-03 03:30N 47°45' W 122°25'0 0.0
2018-Jan-03 03:01N 47°45' W 122°25'0 0.0
2018-Jan-03 02:31N 47°45' W 122°25'0 0.0
2018-Jan-03 02:01N 47°45' W 122°25'0 0.0
2018-Jan-03 01:31N 47°45' W 122°25'0 0.0
2018-Jan-03 01:01N 47°45' W 122°25'0 0.0
2018-Jan-03 00:31N 47°45' W 122°25'0 0.2
2018-Jan-03 00:01N 47°45' W 122°25'0 0.4
2018-Jan-02 23:31N 47°45' W 122°26'0 0.5
2018-Jan-02 23:01N 47°45' W 122°26'1 2.8
2018-Jan-02 22:31N 47°43' W 122°25'3 6.7
2018-Jan-02 22:01N 47°40' W 122°24'1 1.3
2018-Jan-02 21:31N 47°40' W 122°23'2 3.3
2018-Jan-02 21:01N 47°39' W 122°21'1 2.8
2018-Jan-02 20:29N 47°39' W 122°19'0 0.3
2018-Jan-02 19:59N 47°39' W 122°19'0 0.0
2018-Jan-02 19:29N 47°39' W 122°19'0 0.0
2018-Jan-02 18:55N 47°39' W 122°19'0 0.0
2018-Jan-02 18:28N 47°39' W 122°19'0 0.0
2018-Jan-02 14:22N 47°39' W 122°19'0 0.0
2018-Jan-02 13:58N 47°39' W 122°19'0 0.0
2018-Jan-02 13:28N 47°39' W 122°19'0 0.0
2018-Jan-02 12:58N 47°39' W 122°19'0 0.0
2018-Jan-02 12:28N 47°39' W 122°19'0 0.0
2018-Jan-02 11:58N 47°39' W 122°19'0 0.0
2018-Jan-02 11:28N 47°39' W 122°19'  
Track history (hours):
 
Tides and Currents Weather Stations Pressure Air Temp Water Temp Dewpoint Dewpoint Depression Visibility Wind Speed Wind Dir Waves Ship Positions

Oceanographic research ship Thomas G. Thompson (USA)

Ship's website: http://www.ocean.washington.edu/vessels/TGT/tgt.html

Detailed information on ship capabilities available from University of Delaware's Ocean Information Center.

Owner: UNIVERSITY OF WASHINGTON, SEATTLE, WA. More information available from US FCC via Universal Licensing System and Coast Guard Vessel Documentation Center.

Last reported at 2018-Jan-12 11:05 UTC. Time now 2018-Jan-19 23:36 UTC.
Position N 48°15' W 123°54'.

Type: Other ship. MMSI: 366345000.

Date/timePositionNaut miles runAvg speedWind from/ knotsBaromVisibWave heightAir tempDewpointWater temp
2018-Jan-12 11:05N 48°15' W 123°54'0 0.3
2018-Jan-12 10:46N 48°15' W 123°54'1 0.5
2018-Jan-12 07:43N 48°17' W 123°53'2 6.8
2018-Jan-12 07:27N 48°15' W 123°55'4 9.4
2018-Jan-12 07:00N 48°15' W 124°01'613.2
2018-Jan-12 06:31N 48°18' W 124°10'4 8.4
2018-Jan-12 06:00N 48°20' W 124°15'3 6.9
2018-Jan-12 05:31N 48°21' W 124°20'612.0
2018-Jan-12 05:00N 48°24' W 124°28'611.5
2018-Jan-12 04:31N 48°26' W 124°36'611.3
2018-Jan-12 04:00N 48°29' W 124°44'510.6
2018-Jan-12 03:31N 48°29' W 124°52'510.1
2018-Jan-12 03:01N 48°28' W 124°59'6 0.1
2018-Jan-10 09:08N 48°25' W 125°07'1 9.6
2018-Jan-10 08:59N 48°27' W 125°05'611.8
2018-Jan-10 08:29N 48°31' W 124°59'511.5
2018-Jan-10 08:01N 48°31' W 124°51'611.1
2018-Jan-10 07:31N 48°31' W 124°43'611.1
2018-Jan-10 07:00N 48°28' W 124°35'510.6
2018-Jan-10 06:30N 48°26' W 124°27'510.8
2018-Jan-10 06:01N 48°24' W 124°20'611.3
2018-Jan-10 05:30N 48°22' W 124°12'610.7
2018-Jan-10 04:59N 48°20' W 124°05'42 1.6
2018-Jan-09 02:17N 48°15' W 123°02'0 0.8
2018-Jan-09 01:44N 48°15' W 123°03'0 0.3
2018-Jan-09 01:28N 48°15' W 123°03'6 8.2
2018-Jan-09 00:43N 48°13' W 122°54'314.2
2018-Jan-09 00:31N 48°12' W 122°49'1014.1
2018-Jan-08 23:49N 48°06' W 122°39'513.9
2018-Jan-08 23:25N 48°00' W 122°36'512.6
2018-Jan-08 23:00N 47°57' W 122°31'713.3
2018-Jan-08 22:30N 47°50' W 122°27'713.2
2018-Jan-08 22:00N 47°44' W 122°26'612.7
2018-Jan-08 21:31N 47°37' W 122°26'3 6.0
2018-Jan-08 20:55N 47°37' W 122°21'0 0.0
2018-Jan-08 20:22N 47°37' W 122°21'0 0.0
2018-Jan-08 19:58N 47°37' W 122°21'0 0.0
2018-Jan-08 19:16N 47°37' W 122°21'0 0.0
2018-Jan-08 18:58N 47°37' W 122°21'0 0.0
2018-Jan-08 18:28N 47°37' W 122°21'0 0.0
2018-Jan-08 17:58N 47°37' W 122°21'0 0.0
2018-Jan-08 17:28N 47°37' W 122°21'0 0.0
2018-Jan-08 16:58N 47°37' W 122°21'0 0.0
2018-Jan-08 16:28N 47°37' W 122°21'0 0.0
2018-Jan-08 15:22N 47°37' W 122°21'0 0.0
2018-Jan-08 14:58N 47°37' W 122°21'0 0.0
2018-Jan-08 14:28N 47°37' W 122°21'0 0.0
2018-Jan-08 13:58N 47°37' W 122°21'0 0.0
2018-Jan-08 13:04N 47°37' W 122°21'0 0.0
2018-Jan-08 11:46N 47°37' W 122°21'0 0.0
2018-Jan-08 10:28N 47°37' W 122°21'0 0.0
2018-Jan-08 09:52N 47°37' W 122°21'0 0.0
2018-Jan-08 09:28N 47°37' W 122°21'0 0.0
2018-Jan-08 08:46N 47°37' W 122°21'0 0.0
2018-Jan-08 08:22N 47°37' W 122°21'0 0.0
2018-Jan-08 07:58N 47°37' W 122°21'0 0.0
2018-Jan-08 07:28N 47°37' W 122°21'0 0.0
2018-Jan-08 06:58N 47°37' W 122°21'0 0.0
2018-Jan-08 06:28N 47°37' W 122°21'0 0.0
2018-Jan-08 05:58N 47°37' W 122°21'0 0.0
2018-Jan-08 05:28N 47°37' W 122°21'0 0.0
2018-Jan-08 04:58N 47°37' W 122°21'0 0.0
2018-Jan-08 04:28N 47°37' W 122°21'0 0.0
2018-Jan-08 03:52N 47°37' W 122°21'0 0.0
2018-Jan-08 03:10N 47°37' W 122°21'0 0.0
2018-Jan-08 02:52N 47°37' W 122°21'0 0.0
2018-Jan-08 02:28N 47°37' W 122°21'0 0.0
2018-Jan-08 01:58N 47°37' W 122°21'0 0.0
2018-Jan-08 01:28N 47°37' W 122°21'0 0.0
2018-Jan-08 00:46N 47°37' W 122°21'0 0.0
2018-Jan-08 00:28N 47°37' W 122°21'0 0.0
2018-Jan-08 00:00N 47°37' W 122°21'1 2.1
2018-Jan-07 23:30N 47°37' W 122°22'4 7.6
2018-Jan-07 23:00N 47°39' W 122°27'4 7.8
2018-Jan-07 22:30N 47°43' W 122°25'0 0.0
2018-Jan-07 22:01N 47°43' W 122°25'0 0.0
2018-Jan-07 21:30N 47°43' W 122°25'1 1.8
2018-Jan-07 21:00N 47°44' W 122°25'4 8.4
2018-Jan-07 20:30N 47°48' W 122°25'4 7.6
2018-Jan-07 20:00N 47°52' W 122°24'1 1.6
2018-Jan-07 19:31N 47°53' W 122°24'2 4.1
2018-Jan-07 19:00N 47°51' W 122°25'0 0.4
2018-Jan-07 18:28N 47°51' W 122°25'4 9.5
2018-Jan-07 18:00N 47°46' W 122°25'2 3.8
2018-Jan-07 17:31N 47°44' W 122°24'1 1.7
2018-Jan-07 17:00N 47°44' W 122°25'2 3.5
2018-Jan-07 16:30N 47°42' W 122°25'0 0.9
2018-Jan-07 16:00N 47°42' W 122°25'0 0.0
2018-Jan-07 15:30N 47°42' W 122°25'2 3.2
2018-Jan-07 15:00N 47°43' W 122°25'2 3.4
2018-Jan-07 14:31N 47°41' W 122°25'2 3.9
2018-Jan-07 14:00N 47°43' W 122°25'1 1.3
2018-Jan-07 13:30N 47°43' W 122°25'1 2.7
2018-Jan-07 13:00N 47°41' W 122°25'2 4.5
2018-Jan-07 12:30N 47°44' W 122°25'1 1.3
2018-Jan-07 12:01N 47°44' W 122°25'4 8.5
2018-Jan-07 11:30N 47°48' W 122°25'2 3.0
2018-Jan-07 11:01N 47°50' W 122°25'1 2.5
2018-Jan-07 10:31N 47°51' W 122°25'1 1.7
2018-Jan-07 10:00N 47°52' W 122°24'1 1.6
2018-Jan-07 09:31N 47°51' W 122°24'1 2.5
2018-Jan-07 09:01N 47°52' W 122°26'1 3.0
2018-Jan-07 08:31N 47°53' W 122°27'4 7.4
2018-Jan-07 07:59N 47°56' W 122°31'26 7.3
2018-Jan-07 04:28N 48°16' W 122°55'5 9.8
2018-Jan-07 04:00N 48°20' W 122°59'5 9.6
2018-Jan-07 03:30N 48°24' W 123°03'5 9.7
2018-Jan-07 03:00N 48°27' W 123°08'510.0
2018-Jan-07 02:31N 48°31' W 123°12'5 9.9
2018-Jan-07 02:00N 48°36' W 123°14'5 9.3
2018-Jan-07 01:29N 48°41' W 123°16'9 9.5
2018-Jan-07 00:29N 48°46' W 123°04'5 9.2
2018-Jan-06 23:55N 48°49' W 122°58'611.0
2018-Jan-06 23:22N 48°47' W 122°50'511.6
2018-Jan-06 22:55N 48°43' W 122°44'410.1
2018-Jan-06 22:31N 48°39' W 122°43'5 9.6
2018-Jan-06 22:00N 48°34' W 122°45'5 9.6
2018-Jan-06 21:30N 48°29' W 122°44'510.6
2018-Jan-06 21:01N 48°24' W 122°44'611.7
2018-Jan-06 20:30N 48°18' W 122°46'2213.0
2018-Jan-06 18:50N 47°58' W 122°34'514.0
2018-Jan-06 18:31N 47°55' W 122°29'713.6
2018-Jan-06 18:00N 47°49' W 122°26'613.0
2018-Jan-06 17:30N 47°42' W 122°25'1 1.8
2018-Jan-06 17:00N 47°41' W 122°25'0 0.0
2018-Jan-06 16:30N 47°41' W 122°25'0 0.1
2018-Jan-06 16:00N 47°41' W 122°25'0 0.7
2018-Jan-06 15:30N 47°42' W 122°25'4 8.0
2018-Jan-06 15:00N 47°46' W 122°25'5 9.1
2018-Jan-06 14:30N 47°50' W 122°25'2 3.4
2018-Jan-06 14:00N 47°52' W 122°25'1 2.1
2018-Jan-06 13:30N 47°51' W 122°25'1 2.9
2018-Jan-06 13:00N 47°52' W 122°24'1 1.2
2018-Jan-06 12:30N 47°52' W 122°24'1 1.6
2018-Jan-06 12:00N 47°51' W 122°25'2 3.6
2018-Jan-06 11:30N 47°53' W 122°24'1 1.6
2018-Jan-06 11:00N 47°52' W 122°24'0 1.0
2018-Jan-06 10:30N 47°51' W 122°24'2 4.0
2018-Jan-06 10:00N 47°53' W 122°26'4 7.7
2018-Jan-06 09:30N 47°55' W 122°31'5 8.8
2018-Jan-06 08:59N 47°58' W 122°36'15 8.3
2018-Jan-06 07:08N 48°11' W 122°49'1 9.3
2018-Jan-06 06:59N 48°12' W 122°50'510.5
2018-Jan-06 06:30N 48°16' W 122°55'612.3
2018-Jan-06 05:59N 48°21' W 123°00'612.7
2018-Jan-06 05:30N 48°26' W 123°06'713.6
2018-Jan-06 05:00N 48°31' W 123°12'714.3
2018-Jan-06 04:30N 48°38' W 123°15'511.0
2018-Jan-06 04:00N 48°43' W 123°11'1012.6
2018-Jan-06 03:14N 48°49' W 122°59'210.2
2018-Jan-06 02:59N 48°50' W 122°55'711.8
2018-Jan-06 02:25N 48°46' W 122°47'512.5
2018-Jan-06 02:00N 48°42' W 122°43'611.9
2018-Jan-06 01:31N 48°36' W 122°45'612.7
2018-Jan-06 01:00N 48°30' W 122°44'612.2
2018-Jan-06 00:30N 48°24' W 122°44'612.3
2018-Jan-06 00:00N 48°17' W 122°47'2011.4
2018-Jan-05 22:14N 47°59' W 122°35'312.6
2018-Jan-05 22:00N 47°57' W 122°32'612.3
2018-Jan-05 21:30N 47°52' W 122°28'713.2
2018-Jan-05 21:00N 47°45' W 122°26'713.1
2018-Jan-05 20:30N 47°39' W 122°27'4 8.1
2018-Jan-05 20:00N 47°36' W 122°21'4 8.0
2018-Jan-05 19:30N 47°34' W 122°26'510.3
2018-Jan-05 19:00N 47°29' W 122°25'5 9.9
2018-Jan-05 18:30N 47°25' W 122°22'4 8.4
2018-Jan-05 18:00N 47°21' W 122°24'5 9.3
2018-Jan-05 17:30N 47°19' W 122°31'3 6.8
2018-Jan-05 17:00N 47°16' W 122°33'5 9.1
2018-Jan-05 16:27N 47°12' W 122°36'3 0.5
2018-Jan-05 10:14N 47°10' W 122°40'0 0.0
2018-Jan-05 10:00N 47°10' W 122°40'0 0.0
2018-Jan-05 09:30N 47°10' W 122°40'0 0.0
2018-Jan-05 09:00N 47°10' W 122°40'0 0.0
2018-Jan-05 08:30N 47°10' W 122°40'0 0.1
2018-Jan-05 05:44N 47°10' W 122°40'0 0.0
2018-Jan-05 05:30N 47°10' W 122°40'0 0.0
2018-Jan-05 04:34N 47°10' W 122°40'0 0.0
2018-Jan-05 04:11N 47°10' W 122°40'0 0.3
2018-Jan-05 02:41N 47°10' W 122°39'1 5.7
2018-Jan-05 02:30N 47°11' W 122°38'5 9.7
2018-Jan-05 01:57N 47°15' W 122°34'4 9.6
2018-Jan-05 01:30N 47°20' W 122°33'5 9.5
2018-Jan-05 01:00N 47°21' W 122°26'4 8.3
2018-Jan-05 00:30N 47°24' W 122°23'5 9.8
2018-Jan-05 00:00N 47°29' W 122°26'510.7
2018-Jan-04 23:30N 47°34' W 122°28'611.1
2018-Jan-04 23:00N 47°39' W 122°28'5 9.9
2018-Jan-04 22:31N 47°44' W 122°26'1 2.4
2018-Jan-04 22:00N 47°45' W 122°25'0 0.0
2018-Jan-04 21:30N 47°45' W 122°25'0 0.0
2018-Jan-04 21:00N 47°45' W 122°25'2 3.7
2018-Jan-04 20:30N 47°43' W 122°25'2 3.2
2018-Jan-04 20:00N 47°41' W 122°25'0 0.0
2018-Jan-04 19:30N 47°41' W 122°25'0 0.0
2018-Jan-04 19:00N 47°41' W 122°25'0 0.0
2018-Jan-04 18:30N 47°41' W 122°25'0 0.0
2018-Jan-04 18:00N 47°41' W 122°25'0 0.0
2018-Jan-04 17:30N 47°41' W 122°25'0 0.0
2018-Jan-04 17:00N 47°41' W 122°25'0 0.0
2018-Jan-04 16:30N 47°41' W 122°25'0 0.0
2018-Jan-04 16:00N 47°41' W 122°25'0 0.0
2018-Jan-04 15:30N 47°41' W 122°25'0 0.0
2018-Jan-04 15:00N 47°41' W 122°25'0 0.0
2018-Jan-04 14:30N 47°41' W 122°25'3 5.4
2018-Jan-04 14:00N 47°44' W 122°25'4 8.3
2018-Jan-04 13:30N 47°48' W 122°25'3 6.8
2018-Jan-04 13:01N 47°51' W 122°23'0 0.2
2018-Jan-04 12:30N 47°51' W 122°23'0 0.2
2018-Jan-04 12:00N 47°51' W 122°23'0 0.0
2018-Jan-04 11:30N 47°51' W 122°23'1 2.0
2018-Jan-04 11:00N 47°51' W 122°24'0 0.0
2018-Jan-04 10:30N 47°51' W 122°24'0 0.0
2018-Jan-04 10:00N 47°51' W 122°24'0 0.0
2018-Jan-04 09:30N 47°51' W 122°24'0 0.0
2018-Jan-04 09:00N 47°51' W 122°24'0 0.3
2018-Jan-04 08:30N 47°51' W 122°24'0 1.0
2018-Jan-04 08:00N 47°51' W 122°25'0 0.0
2018-Jan-04 07:30N 47°51' W 122°25'0 0.5
2018-Jan-04 07:00N 47°51' W 122°25'1 2.3
2018-Jan-04 06:30N 47°52' W 122°24'1 1.2
2018-Jan-04 06:00N 47°52' W 122°25'5 9.3
2018-Jan-04 05:30N 47°47' W 122°25'3 6.3
2018-Jan-04 05:00N 47°44' W 122°25'0 0.0
2018-Jan-04 04:30N 47°44' W 122°25'0 0.0
2018-Jan-04 04:00N 47°44' W 122°25'0 0.0
2018-Jan-04 03:30N 47°44' W 122°25'0 0.0
2018-Jan-04 03:00N 47°44' W 122°25'0 0.0
2018-Jan-04 02:30N 47°44' W 122°25'0 0.0
2018-Jan-04 02:00N 47°44' W 122°25'0 0.0
2018-Jan-04 01:30N 47°44' W 122°25'0 0.0
2018-Jan-04 01:00N 47°44' W 122°25'0 0.0
2018-Jan-04 00:30N 47°44' W 122°25'2 4.8
2018-Jan-04 00:00N 47°46' W 122°27'612.6
2018-Jan-03 23:30N 47°53' W 122°29'612.5
2018-Jan-03 23:00N 47°57' W 122°35'2611.9
2018-Jan-03 20:48N 48°12' W 123°07'412.8
2018-Jan-03 20:28N 48°12' W 123°14'611.8
2018-Jan-03 19:59N 48°13' W 123°22'611.7
2018-Jan-03 19:30N 48°13' W 123°31'510.7
2018-Jan-03 19:00N 48°13' W 123°39'810.9
2018-Jan-03 18:14N 48°14' W 123°51'410.3
2018-Jan-03 17:48N 48°14' W 123°58'310.7
2018-Jan-03 17:30N 48°16' W 124°02'510.6
2018-Jan-03 17:00N 48°18' W 124°09'510.5
2018-Jan-03 16:30N 48°20' W 124°17'510.7
2018-Jan-03 16:00N 48°23' W 124°24'511.0
2018-Jan-03 15:30N 48°25' W 124°31'612.3
2018-Jan-03 15:00N 48°28' W 124°39'510.2
2018-Jan-03 14:30N 48°30' W 124°46'611.5
2018-Jan-03 14:00N 48°29' W 124°38'611.5
2018-Jan-03 13:30N 48°27' W 124°30'611.8
2018-Jan-03 13:00N 48°25' W 124°22'611.3
2018-Jan-03 12:30N 48°22' W 124°14'510.9
2018-Jan-03 12:00N 48°20' W 124°06'610.9
2018-Jan-03 11:28N 48°18' W 123°58'510.4
2018-Jan-03 11:00N 48°17' W 123°51'510.2
2018-Jan-03 10:30N 48°16' W 123°43'510.6
2018-Jan-03 10:00N 48°16' W 123°35'711.3
2018-Jan-03 09:24N 48°15' W 123°25'511.9
2018-Jan-03 09:00N 48°14' W 123°18'612.1
2018-Jan-03 08:30N 48°13' W 123°09'612.1
2018-Jan-03 08:00N 48°12' W 123°00'713.6
2018-Jan-03 07:29N 48°12' W 122°50'1012.9
2018-Jan-03 06:42N 48°05' W 122°39'714.4
2018-Jan-03 06:12N 47°58' W 122°35'313.9
2018-Jan-03 06:00N 47°57' W 122°31'612.7
2018-Jan-03 05:31N 47°51' W 122°28'611.1
2018-Jan-03 05:01N 47°46' W 122°26'1 1.8
2018-Jan-03 04:31N 47°45' W 122°25'0 0.0
2018-Jan-03 04:01N 47°45' W 122°25'0 0.0
2018-Jan-03 03:30N 47°45' W 122°25'0 0.0
2018-Jan-03 03:01N 47°45' W 122°25'0 0.0
2018-Jan-03 02:31N 47°45' W 122°25'0 0.0
2018-Jan-03 02:01N 47°45' W 122°25'0 0.0
2018-Jan-03 01:31N 47°45' W 122°25'0 0.0
2018-Jan-03 01:01N 47°45' W 122°25'0 0.0
2018-Jan-03 00:31N 47°45' W 122°25'0 0.2
2018-Jan-03 00:01N 47°45' W 122°25'0 0.4
2018-Jan-02 23:31N 47°45' W 122°26'0 0.5
2018-Jan-02 23:01N 47°45' W 122°26'1 2.8
2018-Jan-02 22:31N 47°43' W 122°25'3 6.7
2018-Jan-02 22:01N 47°40' W 122°24'1 1.3
2018-Jan-02 21:31N 47°40' W 122°23'2 3.3
2018-Jan-02 21:01N 47°39' W 122°21'1 2.8
2018-Jan-02 20:29N 47°39' W 122°19'0 0.3
2018-Jan-02 19:59N 47°39' W 122°19'0 0.0
2018-Jan-02 19:29N 47°39' W 122°19'0 0.0
2018-Jan-02 18:55N 47°39' W 122°19'0 0.0
2018-Jan-02 18:28N 47°39' W 122°19'0 0.0
2018-Jan-02 14:22N 47°39' W 122°19'0 0.0
2018-Jan-02 13:58N 47°39' W 122°19'0 0.0
2018-Jan-02 13:28N 47°39' W 122°19'0 0.0
2018-Jan-02 12:58N 47°39' W 122°19'0 0.0
2018-Jan-02 12:28N 47°39' W 122°19'0 0.0
2018-Jan-02 11:58N 47°39' W 122°19'0 0.0
2018-Jan-02 11:28N 47°39' W 122°19'  

Dump ship's entire track history